createdAt,value
2022-10-25T00:01:46.771Z,11.15
2022-10-25T00:04:14.565Z,9.77
2022-10-25T00:06:41.283Z,9.20
2022-10-25T00:09:08.210Z,10.57
2022-10-25T00:11:35.239Z,8.55
2022-10-25T00:14:05.355Z,8.38
2022-10-25T00:16:34.842Z,9.55
2022-10-25T00:19:01.339Z,13.07
2022-10-25T00:21:27.823Z,11.23
2022-10-25T00:23:54.358Z,11.18
2022-10-25T00:26:21.421Z,9.40
2022-10-25T00:28:48.489Z,8.85
2022-10-25T00:31:16.585Z,9.77
2022-10-25T00:33:44.158Z,11.70
2022-10-25T00:36:17.093Z,10.52
2022-10-25T00:38:44.701Z,8.13
2022-10-25T00:41:12.664Z,11.35
2022-10-25T00:43:43.131Z,16.67
2022-10-25T00:46:25.558Z,15.13
2022-10-25T00:48:56.002Z,13.93
2022-10-25T00:51:28.561Z,10.40
2022-10-25T00:53:55.831Z,10.73
2022-10-25T00:56:28.207Z,9.95
2022-10-25T00:59:00.424Z,9.57
2022-10-25T01:01:27.402Z,8.88
2022-10-25T01:03:56.586Z,10.45
2022-10-25T01:06:30.149Z,10.63
2022-10-25T01:08:57.799Z,9.82
2022-10-25T01:11:24.237Z,9.20
2022-10-25T01:13:51.316Z,10.35
2022-10-25T01:16:44.042Z,12.68
2022-10-25T01:19:42.192Z,9.30
2022-10-25T01:22:39.078Z,13.68
2022-10-25T01:25:19.512Z,10.17
2022-10-25T01:30:59.011Z,12.55
2022-10-25T01:33:44.160Z,12.05
2022-10-25T01:36:19.709Z,11.10
2022-10-25T01:38:49.276Z,11.43
2022-10-25T01:41:27.967Z,10.32
2022-10-25T01:44:11.691Z,9.98
2022-10-25T01:46:53.935Z,12.55
2022-10-25T01:49:49.766Z,12.75
2022-10-25T01:52:22.338Z,9.37
2022-10-25T01:54:50.120Z,10.75
2022-10-25T01:57:16.622Z,11.73
2022-10-25T01:59:52.055Z,12.27
2022-10-25T02:02:32.842Z,14.00
2022-10-25T02:05:23.971Z,14.00
2022-10-25T02:08:18.669Z,12.15
2022-10-25T02:10:56.710Z,10.60
2022-10-25T02:13:38.817Z,13.40
2022-10-25T02:16:12.099Z,10.32
2022-10-25T02:18:43.419Z,10.27
2022-10-25T02:21:12.109Z,14.55
2022-10-25T02:23:40.482Z,11.38
2022-10-25T02:26:09.811Z,11.63
2022-10-25T02:28:40.055Z,12.30
2022-10-25T02:31:10.119Z,16.43
2022-10-25T02:33:37.529Z,10.88
2022-10-25T02:36:28.731Z,9.25
2022-10-25T02:38:55.575Z,10.43
2022-10-25T02:41:22.925Z,11.50
2022-10-25T02:43:49.921Z,9.57
2022-10-25T02:46:19.702Z,11.00
2022-10-25T02:48:46.661Z,10.27
2022-10-25T02:51:14.221Z,10.43
2022-10-25T02:53:41.626Z,12.70
2022-10-25T02:56:09.898Z,11.97
2022-10-25T02:58:38.419Z,9.73
2022-10-25T03:01:06.564Z,10.32
2022-10-25T03:03:33.822Z,9.70
2022-10-25T03:06:00.922Z,11.30
2022-10-25T03:11:00.021Z,11.77
2022-10-25T03:13:26.633Z,11.80
2022-10-25T03:15:53.249Z,11.10
2022-10-25T03:18:19.865Z,10.55
2022-10-25T03:20:46.386Z,11.10
2022-10-25T03:23:13.089Z,11.13
2022-10-25T03:25:40.109Z,11.23
2022-10-25T03:28:08.303Z,9.50
2022-10-25T03:30:35.254Z,9.40
2022-10-25T03:33:01.951Z,10.17
2022-10-25T03:35:28.560Z,11.07
2022-10-25T03:37:55.123Z,11.88
2022-10-25T03:40:22.769Z,10.32
2022-10-25T03:42:49.291Z,10.30
2022-10-25T03:45:15.965Z,9.27
2022-10-25T03:47:42.453Z,10.73
2022-10-25T03:50:09.478Z,9.00
2022-10-25T03:52:36.215Z,9.32
2022-10-25T03:55:03.566Z,9.60
2022-10-25T03:57:30.498Z,9.17
2022-10-25T03:59:57.823Z,8.77
2022-10-25T04:02:24.255Z,11.50
2022-10-25T04:04:50.838Z,7.40
2022-10-25T04:07:17.853Z,9.13
2022-10-25T04:09:45.550Z,10.37
2022-10-25T04:12:13.041Z,11.48
2022-10-25T04:14:39.574Z,7.18
2022-10-25T04:17:06.110Z,8.50
2022-10-25T04:19:32.747Z,7.57
2022-10-25T04:22:02.113Z,8.90
2022-10-25T04:24:29.470Z,8.23
2022-10-25T04:26:57.114Z,7.43
2022-10-25T04:29:24.021Z,9.10
2022-10-25T04:31:50.821Z,8.52
2022-10-25T04:34:17.535Z,8.90
2022-10-25T04:36:44.182Z,9.60
2022-10-25T04:39:10.981Z,10.13
2022-10-25T04:41:37.482Z,7.47
2022-10-25T04:44:04.241Z,9.65
2022-10-25T04:46:30.793Z,9.97
2022-10-25T04:48:57.384Z,10.50
2022-10-25T04:51:23.987Z,8.18
2022-10-25T04:53:53.403Z,9.57
2022-10-25T04:56:19.977Z,9.73
2022-10-25T04:58:46.512Z,8.17
2022-10-25T05:01:16.166Z,8.68
2022-10-25T05:03:42.933Z,8.38
2022-10-25T05:06:14.937Z,6.63
2022-10-25T05:08:43.978Z,9.77
2022-10-25T05:11:11.439Z,7.50
2022-10-25T05:13:39.437Z,8.80
2022-10-25T05:16:06.938Z,7.13
2022-10-25T05:18:34.848Z,7.47
2022-10-25T05:21:07.011Z,9.35
2022-10-25T05:23:34.625Z,6.67
2022-10-25T05:26:10.475Z,7.68
2022-10-25T05:28:38.689Z,8.55
2022-10-25T05:31:26.293Z,7.30
2022-10-25T05:33:56.185Z,7.18
2022-10-25T05:36:23.538Z,7.93
2022-10-25T05:38:50.210Z,6.40
2022-10-25T05:41:17.994Z,8.02
2022-10-25T05:43:45.084Z,6.75
2022-10-25T05:46:14.842Z,8.80
2022-10-25T05:48:47.260Z,7.47
2022-10-25T05:51:36.335Z,8.63
2022-10-25T05:54:09.780Z,6.45
2022-10-25T05:56:36.697Z,7.53
2022-10-25T05:59:12.353Z,8.20
2022-10-25T06:01:45.410Z,8.30
2022-10-25T06:04:12.907Z,8.50
2022-10-25T06:06:40.762Z,9.52
2022-10-25T06:09:07.398Z,7.05
2022-10-25T06:11:34.060Z,8.10
2022-10-25T06:14:00.673Z,5.13
2022-10-25T06:16:27.585Z,6.40
2022-10-25T06:18:54.593Z,6.80
2022-10-25T06:21:23.921Z,7.53
2022-10-25T06:23:51.203Z,5.82
2022-10-25T06:26:21.030Z,5.57
2022-10-25T06:28:47.792Z,6.68
2022-10-25T06:31:16.417Z,5.60
2022-10-25T06:33:43.542Z,7.72
2022-10-25T06:36:14.911Z,8.23
2022-10-25T06:38:41.487Z,7.40
2022-10-25T06:41:15.522Z,5.45
2022-10-25T06:43:42.258Z,10.18
2022-10-25T06:46:17.004Z,7.18
2022-10-25T06:48:43.521Z,6.75
2022-10-25T06:51:10.568Z,6.50
2022-10-25T06:53:38.070Z,5.95
2022-10-25T06:56:10.527Z,7.57
2022-10-25T06:58:40.130Z,6.97
2022-10-25T07:01:10.225Z,6.60
2022-10-25T07:03:37.147Z,6.90
2022-10-25T07:06:12.542Z,7.05
2022-10-25T07:08:44.492Z,6.57
2022-10-25T07:11:19.668Z,7.45
2022-10-25T07:13:47.129Z,6.38
2022-10-25T07:16:17.250Z,5.80
2022-10-25T07:18:44.260Z,7.82
2022-10-25T07:21:13.436Z,8.18
2022-10-25T07:23:43.739Z,5.45
2022-10-25T07:26:18.854Z,9.93
2022-10-25T07:28:46.892Z,5.87
2022-10-25T07:31:25.843Z,6.75
2022-10-25T07:33:53.523Z,6.45
2022-10-25T07:36:20.629Z,7.07
2022-10-25T07:38:47.126Z,6.00
2022-10-25T07:41:13.936Z,8.57
2022-10-25T07:43:40.692Z,6.80
2022-10-25T07:46:07.865Z,6.10
2022-10-25T07:48:34.531Z,7.50
2022-10-25T07:51:12.162Z,6.97
2022-10-25T07:53:39.442Z,9.37
2022-10-25T07:56:07.517Z,7.82
2022-10-25T07:58:34.870Z,7.90
2022-10-25T08:01:06.150Z,9.00
2022-10-25T08:03:33.018Z,8.38
2022-10-25T08:06:00.038Z,8.93
2022-10-25T08:08:27.221Z,5.63
2022-10-25T08:10:54.108Z,8.68
2022-10-25T08:13:21.009Z,7.65
2022-10-25T08:15:55.137Z,8.57
2022-10-25T08:18:23.474Z,9.90
2022-10-25T08:21:01.648Z,10.25
2022-10-25T08:23:30.703Z,6.85
2022-10-25T08:25:57.312Z,10.80
2022-10-25T08:28:23.857Z,7.15
2022-10-25T08:30:50.306Z,13.37
2022-10-25T08:33:16.986Z,10.93
2022-10-25T08:35:43.660Z,11.68
2022-10-25T08:38:10.153Z,8.95
2022-10-25T08:41:01.550Z,8.23
2022-10-25T08:43:53.594Z,12.57
2022-10-25T08:46:34.914Z,10.60
2022-10-25T08:49:21.762Z,9.05
2022-10-25T08:51:50.741Z,10.95
2022-10-25T08:54:23.243Z,8.45
2022-10-25T08:57:18.002Z,9.17
2022-10-25T08:59:50.046Z,9.55
2022-10-25T09:02:22.101Z,9.85
2022-10-25T09:04:56.856Z,9.57
2022-10-25T09:07:44.717Z,9.30
2022-10-25T09:10:36.866Z,9.30
2022-10-25T09:13:17.991Z,11.23
2022-10-25T09:15:53.497Z,12.15
2022-10-25T09:18:33.900Z,11.48
2022-10-25T09:21:03.844Z,12.70
2022-10-25T09:23:33.015Z,13.10
2022-10-25T09:26:11.621Z,11.85
2022-10-25T09:28:51.872Z,13.23
2022-10-25T09:31:23.363Z,8.63
2022-10-25T09:33:53.194Z,10.50
2022-10-25T09:36:19.976Z,10.33
2022-10-25T09:38:55.782Z,9.60
2022-10-25T09:41:35.419Z,12.55
2022-10-25T09:44:06.918Z,10.82
2022-10-25T09:46:48.828Z,11.38
2022-10-25T09:49:28.806Z,10.57
2022-10-25T09:52:19.393Z,7.95
2022-10-25T09:55:12.085Z,13.98
2022-10-25T09:57:38.701Z,11.77
2022-10-25T10:00:05.855Z,11.02
2022-10-25T10:02:32.506Z,8.03
2022-10-25T10:04:59.247Z,8.35
2022-10-25T10:07:46.064Z,10.00
2022-10-25T10:10:16.327Z,9.70
2022-10-25T10:13:01.800Z,11.45
2022-10-25T10:15:28.271Z,7.43
2022-10-25T10:18:19.511Z,8.27
2022-10-25T10:21:11.857Z,8.57
2022-10-25T10:23:41.359Z,9.55
2022-10-25T10:26:23.016Z,9.93
2022-10-25T10:28:54.518Z,8.30
2022-10-25T10:31:21.233Z,11.07
2022-10-25T10:33:51.750Z,8.93
2022-10-25T10:36:28.321Z,9.35
2022-10-25T10:39:13.332Z,8.90
2022-10-25T10:42:15.347Z,13.00
2022-10-25T10:44:59.139Z,8.73
2022-10-25T10:47:28.174Z,9.15
2022-10-25T10:49:54.734Z,8.95
2022-10-25T10:52:31.642Z,7.82
2022-10-25T10:54:59.564Z,10.87
2022-10-25T10:57:34.961Z,9.40
2022-10-25T11:00:02.411Z,11.45
2022-10-25T11:02:38.042Z,10.60
2022-10-25T11:05:19.835Z,9.68
2022-10-25T11:07:53.413Z,8.67
2022-10-25T11:10:23.258Z,8.05
2022-10-25T11:13:08.578Z,9.18
2022-10-25T11:15:53.571Z,8.30
2022-10-25T11:18:33.185Z,12.57
2022-10-25T11:21:09.825Z,8.33
2022-10-25T11:24:07.248Z,7.80
2022-10-25T11:26:48.016Z,10.25
2022-10-25T11:29:43.917Z,8.57
2022-10-25T11:32:39.971Z,9.68
2022-10-25T11:35:33.718Z,7.97
2022-10-25T11:38:15.393Z,8.98
2022-10-25T11:40:54.919Z,11.07
2022-10-25T11:43:33.447Z,7.85
2022-10-25T11:46:07.490Z,8.13
2022-10-25T11:48:53.350Z,7.63
2022-10-25T11:51:29.028Z,9.98
2022-10-25T11:54:37.339Z,8.73
2022-10-25T11:57:39.191Z,7.57
2022-10-25T12:00:22.885Z,10.35
2022-10-25T12:03:01.581Z,10.33
2022-10-25T12:05:52.942Z,8.70
2022-10-25T12:08:51.198Z,8.32
2022-10-25T12:11:32.678Z,8.27
2022-10-25T12:14:10.645Z,9.10
2022-10-25T12:16:38.252Z,9.77
2022-10-25T12:19:40.366Z,10.93
2022-10-25T12:22:13.405Z,8.73
2022-10-25T12:24:46.321Z,9.07
2022-10-25T12:27:17.271Z,8.32
2022-10-25T12:29:49.517Z,8.90
2022-10-25T12:32:28.995Z,10.27
2022-10-25T12:34:59.976Z,9.30
2022-10-25T12:37:47.455Z,11.18
2022-10-25T12:40:17.996Z,8.32
2022-10-25T12:42:48.362Z,7.67
2022-10-25T12:45:42.298Z,7.90
2022-10-25T12:48:17.835Z,8.52
2022-10-25T12:51:00.918Z,7.30
2022-10-25T12:53:44.539Z,9.82
2022-10-25T12:56:43.005Z,8.37
2022-10-25T12:59:17.390Z,8.35
2022-10-25T13:01:43.897Z,9.10
2022-10-25T13:04:17.582Z,8.40
2022-10-25T13:06:46.490Z,12.23
2022-10-25T13:09:22.081Z,8.57
2022-10-25T13:11:59.555Z,10.70
2022-10-25T13:14:38.895Z,9.07
2022-10-25T13:17:20.459Z,8.82
2022-10-25T13:19:55.227Z,8.98
2022-10-25T13:22:39.844Z,10.07
2022-10-25T13:25:12.677Z,10.07
2022-10-25T13:28:00.405Z,7.43
2022-10-25T13:30:31.985Z,9.02
2022-10-25T13:33:23.865Z,9.65
2022-10-25T13:35:50.536Z,8.87
2022-10-25T13:38:39.113Z,9.23
2022-10-25T13:41:15.925Z,9.05
2022-10-25T13:43:59.455Z,6.85
2022-10-25T13:46:46.777Z,6.40
2022-10-25T13:49:40.225Z,10.43
2022-10-25T13:52:24.931Z,7.90
2022-10-25T13:54:56.334Z,8.52
2022-10-25T13:57:52.559Z,9.75
2022-10-25T14:00:34.941Z,8.15
2022-10-25T14:03:12.574Z,6.83
2022-10-25T14:05:57.026Z,9.80
2022-10-25T14:08:51.290Z,8.43
2022-10-25T14:11:26.622Z,7.72
2022-10-25T14:14:12.943Z,6.15
2022-10-25T14:16:55.811Z,6.83
2022-10-25T14:19:41.863Z,6.68
2022-10-25T14:22:38.401Z,7.55
2022-10-25T14:25:19.898Z,8.57
2022-10-25T14:27:46.648Z,9.68
2022-10-25T14:30:30.171Z,9.53
2022-10-25T14:32:58.916Z,6.95
2022-10-25T14:35:33.258Z,7.47
2022-10-25T14:38:01.078Z,6.85
2022-10-25T14:40:30.693Z,7.78
2022-10-25T14:43:35.377Z,8.77
2022-10-25T14:46:14.251Z,7.88
2022-10-25T14:48:46.888Z,6.43
2022-10-25T14:51:28.340Z,9.18
2022-10-25T14:54:08.309Z,8.20
2022-10-25T14:56:38.196Z,7.63
2022-10-25T14:59:07.894Z,9.00
2022-10-25T15:01:35.169Z,9.93
2022-10-25T15:04:02.001Z,11.07
2022-10-25T15:06:30.798Z,10.13
2022-10-25T15:09:23.046Z,8.20
2022-10-25T15:12:11.544Z,8.55
2022-10-25T15:14:38.309Z,10.52
2022-10-25T15:17:14.479Z,9.65
2022-10-25T15:20:05.501Z,7.90
2022-10-25T15:22:37.977Z,8.20
2022-10-25T15:25:22.670Z,9.48
2022-10-25T15:27:56.835Z,9.57
2022-10-25T15:30:44.932Z,13.55
2022-10-25T15:33:15.813Z,12.15
2022-10-25T15:35:48.278Z,10.63
2022-10-25T15:38:17.324Z,10.35
2022-10-25T15:40:45.393Z,9.48
2022-10-25T15:43:12.065Z,9.52
2022-10-25T15:45:38.870Z,8.95
2022-10-25T15:48:07.569Z,12.80
2022-10-25T15:50:34.203Z,9.68
2022-10-25T15:53:01.170Z,11.93
2022-10-25T15:55:28.144Z,11.65
2022-10-25T15:57:55.179Z,13.20
2022-10-25T16:00:27.085Z,12.43
2022-10-25T16:02:55.916Z,17.13
2022-10-25T16:05:24.545Z,16.75
2022-10-25T16:07:51.650Z,13.93
2022-10-25T16:10:20.415Z,15.23
2022-10-25T16:13:03.937Z,12.47
2022-10-25T16:15:31.079Z,11.88
2022-10-25T16:17:57.525Z,13.25
2022-10-25T16:20:27.523Z,15.00
2022-10-25T16:22:55.506Z,13.88
2022-10-25T16:25:23.662Z,10.63
2022-10-25T16:27:50.281Z,14.30
2022-10-25T16:30:21.564Z,12.02
2022-10-25T16:32:49.387Z,13.98
2022-10-25T16:35:18.748Z,18.48
2022-10-25T16:37:45.419Z,14.53
2022-10-25T16:40:15.842Z,18.33
2022-10-25T16:42:42.530Z,19.80
2022-10-25T16:45:31.014Z,13.77
2022-10-25T16:47:58.467Z,18.58
2022-10-25T16:50:27.534Z,19.73
2022-10-25T16:52:56.887Z,17.98
2022-10-25T16:55:24.696Z,20.30
2022-10-25T16:57:51.225Z,20.33
2022-10-25T17:00:18.027Z,23.35
2022-10-25T17:02:44.578Z,23.53
2022-10-25T17:05:23.389Z,23.60
2022-10-25T17:07:50.291Z,22.35
2022-10-25T17:10:18.842Z,20.55
2022-10-25T17:12:48.048Z,20.20
2022-10-25T17:15:15.799Z,27.87
2022-10-25T17:17:42.844Z,25.00
2022-10-25T17:20:10.948Z,27.90
2022-10-25T17:22:38.815Z,33.95
2022-10-25T17:25:06.746Z,29.83
2022-10-25T17:27:36.179Z,30.10
2022-10-25T17:30:02.751Z,33.47
2022-10-25T17:32:29.171Z,32.13
2022-10-25T17:34:55.660Z,27.40
2022-10-25T17:37:22.197Z,29.83
2022-10-25T17:39:48.804Z,33.63
2022-10-25T17:42:15.694Z,30.23
2022-10-25T17:44:44.547Z,29.73
2022-10-25T17:47:12.710Z,29.08
2022-10-25T17:49:39.753Z,30.02
2022-10-25T17:52:07.281Z,37.40
2022-10-25T17:54:34.220Z,33.00
2022-10-25T17:57:02.825Z,37.67
2022-10-25T17:59:30.233Z,32.78
2022-10-25T18:01:57.817Z,32.67
2022-10-25T18:04:24.823Z,32.93
2022-10-25T18:06:51.441Z,31.30
2022-10-25T18:09:18.013Z,34.80
2022-10-25T18:11:44.991Z,28.92
2022-10-25T18:14:11.517Z,28.00
2022-10-25T18:16:38.074Z,31.80
2022-10-25T18:19:06.032Z,29.02
2022-10-25T18:21:33.340Z,28.48
2022-10-25T18:24:02.407Z,23.80
2022-10-25T18:26:29.521Z,25.42
2022-10-25T18:28:57.099Z,28.53
2022-10-25T18:31:26.819Z,26.27
2022-10-25T18:33:58.890Z,24.90
2022-10-25T18:36:27.474Z,28.30
2022-10-25T18:38:54.645Z,21.08
2022-10-25T18:41:32.545Z,22.27
2022-10-25T18:43:59.488Z,29.13
2022-10-25T18:46:29.233Z,26.40
2022-10-25T18:48:55.736Z,23.80
2022-10-25T18:51:24.934Z,24.85
2022-10-25T18:54:01.940Z,21.57
2022-10-25T18:56:29.586Z,22.85
2022-10-25T18:58:59.670Z,28.77
2022-10-25T19:01:32.880Z,23.50
2022-10-25T19:04:01.207Z,22.95
2022-10-25T19:06:28.059Z,21.87
2022-10-25T19:08:54.703Z,22.80
2022-10-25T19:11:21.369Z,24.85
2022-10-25T19:13:50.530Z,23.63
2022-10-25T19:16:18.027Z,22.95
2022-10-25T19:18:44.537Z,21.33
2022-10-25T19:21:13.430Z,18.55
2022-10-25T19:23:42.626Z,16.15
2022-10-25T19:26:12.161Z,17.85
2022-10-25T19:28:38.778Z,18.40
2022-10-25T19:31:09.616Z,18.57
2022-10-25T19:33:36.136Z,21.75
2022-10-25T19:36:07.781Z,21.90
2022-10-25T19:38:38.039Z,22.20
2022-10-25T19:41:07.743Z,21.30
2022-10-25T19:43:34.856Z,21.43
2022-10-25T19:46:04.629Z,17.48
2022-10-25T19:48:31.842Z,20.98
2022-10-25T19:51:04.636Z,19.48
2022-10-25T19:53:31.174Z,21.30
2022-10-25T19:56:02.831Z,20.00
2022-10-25T19:58:29.821Z,20.08
2022-10-25T20:01:04.149Z,18.38
2022-10-25T20:03:31.183Z,19.08
2022-10-25T20:06:02.941Z,25.27
2022-10-25T20:08:35.251Z,24.87
2022-10-25T20:11:02.838Z,24.42
2022-10-25T20:13:30.611Z,21.10
2022-10-25T20:15:57.856Z,21.48
2022-10-25T20:18:29.923Z,22.15
2022-10-25T20:20:59.262Z,26.00
2022-10-25T20:23:25.833Z,24.25
2022-10-25T20:25:52.621Z,25.13
2022-10-25T20:28:19.190Z,25.20
2022-10-25T20:30:46.293Z,24.63
2022-10-25T20:33:12.935Z,27.93
2022-10-25T20:35:41.558Z,34.03
2022-10-25T20:38:11.751Z,26.02
2022-10-25T20:40:38.954Z,26.05
2022-10-25T20:43:06.407Z,27.20
2022-10-25T20:45:33.239Z,25.13
2022-10-25T20:48:00.049Z,26.60
2022-10-25T20:50:28.299Z,25.40
2022-10-25T20:53:10.882Z,26.60
2022-10-25T20:55:38.137Z,24.77
2022-10-25T20:58:05.100Z,28.67
2022-10-25T21:00:32.324Z,25.83
2022-10-25T21:02:59.733Z,21.20
2022-10-25T21:05:26.373Z,22.05
2022-10-25T21:07:53.141Z,22.98
2022-10-25T21:10:19.700Z,21.30
2022-10-25T21:12:46.273Z,20.58
2022-10-25T21:15:12.811Z,20.73
2022-10-25T21:17:39.474Z,21.63
2022-10-25T21:20:07.021Z,21.98
2022-10-25T21:22:33.697Z,20.70
2022-10-25T21:25:00.226Z,16.90
2022-10-25T21:27:26.795Z,18.73
2022-10-25T21:29:53.323Z,18.23
2022-10-25T21:32:20.186Z,21.52
2022-10-25T21:34:46.850Z,18.83
2022-10-25T21:37:14.441Z,19.23
2022-10-25T21:39:42.242Z,18.80
2022-10-25T21:42:09.938Z,19.02
2022-10-25T21:44:36.470Z,17.65
2022-10-25T21:47:03.042Z,24.37
2022-10-25T21:49:29.492Z,23.88
2022-10-25T21:51:56.039Z,21.02
2022-10-25T21:54:22.741Z,20.33
2022-10-25T21:56:52.423Z,20.85
2022-10-25T21:59:20.242Z,17.07
2022-10-25T22:01:47.588Z,19.95
2022-10-25T22:04:15.480Z,18.20
2022-10-25T22:06:42.049Z,19.13
2022-10-25T22:09:08.595Z,20.80
2022-10-25T22:11:37.576Z,18.67
2022-10-25T22:14:10.662Z,18.17
2022-10-25T22:16:37.325Z,21.30
2022-10-25T22:19:05.705Z,16.98
2022-10-25T22:21:37.291Z,21.45
2022-10-25T22:24:05.470Z,25.47
2022-10-25T22:26:32.214Z,23.48
2022-10-25T22:28:59.572Z,20.90
2022-10-25T22:31:28.094Z,24.92
2022-10-25T22:34:00.082Z,19.75
2022-10-25T22:36:29.477Z,19.77
2022-10-25T22:38:57.186Z,22.13
2022-10-25T22:41:26.068Z,24.38
2022-10-25T22:43:53.226Z,21.67
2022-10-25T22:46:24.055Z,20.35
2022-10-25T22:48:55.375Z,20.90
2022-10-25T22:51:23.516Z,21.58
2022-10-25T22:53:50.024Z,18.63
2022-10-25T22:56:19.096Z,18.52
2022-10-25T22:58:51.148Z,22.15
2022-10-25T23:01:20.091Z,17.23
2022-10-25T23:03:49.458Z,20.95
2022-10-25T23:06:18.994Z,19.40
2022-10-25T23:08:46.070Z,21.30
2022-10-25T23:11:18.160Z,18.90
2022-10-25T23:13:45.372Z,16.13
2022-10-25T23:16:14.057Z,22.00
2022-10-25T23:18:40.907Z,18.08
2022-10-25T23:21:09.930Z,20.98
2022-10-25T23:23:38.714Z,18.52
2022-10-25T23:28:34.240Z,17.17
2022-10-25T23:31:08.538Z,14.60
2022-10-25T23:33:35.373Z,15.52
2022-10-25T23:36:08.631Z,19.00
2022-10-25T23:38:36.140Z,18.47
2022-10-25T23:41:03.486Z,19.35
2022-10-25T23:43:30.542Z,18.02
2022-10-25T23:45:57.609Z,18.92
2022-10-25T23:48:24.155Z,17.52
2022-10-25T23:53:34.190Z,16.00
2022-10-25T23:56:01.766Z,17.63
2022-10-25T23:58:28.583Z,18.50
